Time;durP1;ratioP1;P1;durP2;ratioP2;P2;SDS_P1;SDS_P2;PMS_P1;PMS_P2;Temp;Humidity;BMP_temperature;BMP_pressure;BME280_temperature;BME280_humidity;BME280_pressure;Samples;Min_cycle;Max_cycle;Signal;HPM_P1;HPM_P2
2022/12/23 00:00:38;;;;;;;16.67;12.50;;;7.70;99.90;;;;;;5032549;28;20438;-62
2022/12/23 00:03:05;;;;;;;15.48;11.90;;;7.70;99.90;;;;;;5032682;28;20422;-62
2022/12/23 00:05:35;;;;;;;19.23;12.40;;;7.70;99.90;;;;;;5032753;28;20418;-63
2022/12/23 00:08:04;;;;;;;16.20;11.23;;;7.70;99.90;;;;;;5033300;28;20419;-62
2022/12/23 00:10:30;;;;;;;14.73;11.38;;;7.70;99.90;;;;;;5032795;28;20422;-63
2022/12/23 00:15:41;;;;;;;16.08;11.30;;;7.80;99.90;;;;;;5032799;28;20430;-62
2022/12/23 00:18:08;;;;;;;17.50;11.60;;;7.70;99.90;;;;;;5032547;28;20422;-62
2022/12/23 00:20:35;;;;;;;15.23;10.70;;;7.70;99.90;;;;;;5033215;28;20419;-60
2022/12/23 00:23:06;;;;;;;15.95;11.40;;;7.70;99.90;;;;;;5032805;28;20418;-62
2022/12/23 00:25:40;;;;;;;15.57;11.50;;;7.70;99.90;;;;;;5032657;28;20414;-62
2022/12/23 00:28:10;;;;;;;17.00;11.02;;;7.70;99.90;;;;;;5036023;28;20910;-62
2022/12/23 00:30:37;;;;;;;15.85;11.23;;;7.80;99.90;;;;;;5037054;28;20450;-62
2022/12/23 00:33:04;;;;;;;14.93;10.80;;;7.80;99.90;;;;;;5036252;28;20415;-62
2022/12/23 00:35:31;;;;;;;15.50;10.30;;;7.80;99.90;;;;;;5036325;28;20438;-61
2022/12/23 00:37:58;;;;;;;14.95;10.95;;;7.80;99.90;;;;;;5036167;28;20442;-61
2022/12/23 00:43:10;;;;;;;13.75;10.50;;;7.80;99.90;;;;;;5036185;28;20455;-62
2022/12/23 00:45:37;;;;;;;14.93;10.48;;;7.80;99.90;;;;;;5037164;28;20415;-62
2022/12/23 00:50:51;;;;;;;15.45;10.30;;;7.90;99.90;;;;;;5036244;28;20402;-62
2022/12/23 00:53:19;;;;;;;15.87;10.50;;;7.90;99.90;;;;;;5036889;28;20418;-62
2022/12/23 00:55:47;;;;;;;13.50;10.05;;;7.90;99.90;;;;;;5035916;28;20430;-62
2022/12/23 00:58:14;;;;;;;14.10;9.70;;;7.90;99.90;;;;;;5036254;28;20417;-63
2022/12/23 01:06:11;;;;;;;12.00;8.10;;;8.00;99.90;;;;;;5038931;28;20562;-62
2022/12/23 01:08:38;;;;;;;10.70;8.18;;;8.00;99.90;;;;;;5036093;28;20426;-62
2022/12/23 01:11:08;;;;;;;12.05;7.75;;;8.00;99.90;;;;;;5035889;28;20426;-63
2022/12/23 01:13:35;;;;;;;9.98;7.05;;;8.10;99.90;;;;;;5035926;28;20418;-63
2022/12/23 01:16:04;;;;;;;9.30;6.90;;;8.10;99.90;;;;;;5035946;28;20510;-62
2022/12/23 01:18:31;;;;;;;10.17;6.40;;;8.10;99.90;;;;;;5035434;28;20460;-62
2022/12/23 01:21:02;;;;;;;9.35;6.25;;;8.10;99.90;;;;;;5035514;28;20425;-62
2022/12/23 01:23:28;;;;;;;10.00;6.93;;;8.10;99.90;;;;;;5034987;28;20528;-62
2022/12/23 01:25:59;;;;;;;8.60;6.47;;;8.10;99.90;;;;;;5035392;28;20426;-62
2022/12/23 01:28:29;;;;;;;10.55;7.20;;;8.10;99.90;;;;;;5035267;28;20414;-62
2022/12/23 01:30:56;;;;;;;10.88;7.55;;;8.10;99.90;;;;;;5035205;28;20422;-62
2022/12/23 01:33:23;;;;;;;8.90;6.60;;;8.10;99.90;;;;;;5035163;28;20422;-62
2022/12/23 01:35:50;;;;;;;10.10;7.00;;;8.10;99.90;;;;;;5035435;28;20439;-62
2022/12/23 01:38:17;;;;;;;9.50;7.03;;;8.20;99.90;;;;;;5034841;28;20415;-62
2022/12/23 01:40:45;;;;;;;9.00;6.60;;;8.20;99.90;;;;;;5047112;28;20422;-62
2022/12/23 01:43:14;;;;;;;8.82;6.70;;;8.20;99.90;;;;;;5042750;28;20415;-62
2022/12/23 01:45:42;;;;;;;8.82;6.22;;;8.30;99.90;;;;;;5037022;28;20509;-62
2022/12/23 01:48:12;;;;;;;8.95;6.65;;;8.30;99.90;;;;;;5035753;28;20779;-62
2022/12/23 01:50:42;;;;;;;8.23;6.43;;;8.30;99.90;;;;;;5035512;28;20426;-63
2022/12/23 01:53:13;;;;;;;7.07;6.03;;;8.30;99.90;;;;;;5035222;28;20410;-61
2022/12/23 01:55:45;;;;;;;8.30;6.40;;;8.30;99.90;;;;;;5034611;28;20431;-62
2022/12/23 01:58:16;;;;;;;7.25;5.95;;;8.40;99.90;;;;;;5036112;28;20459;-62
2022/12/23 02:03:44;;;;;;;9.07;6.20;;;8.40;99.90;;;;;;5035429;28;20480;-58
2022/12/23 02:12:29;;;;;;;7.78;6.03;;;8.40;99.90;;;;;;4998836;28;20521;-61
2022/12/23 02:18:05;;;;;;;8.50;6.78;;;8.50;99.90;;;;;;5035253;28;20862;-62
2022/12/23 02:21:29;;;;;;;7.70;6.60;;;8.50;99.90;;;;;;5034932;28;20415;-62
2022/12/23 02:24:33;;;;;;;8.00;6.18;;;8.50;99.90;;;;;;4992240;28;20529;-61
2022/12/23 02:27:09;;;;;;;9.18;6.80;;;8.50;99.90;;;;;;4993300;28;20425;-62
2022/12/23 02:30:00;;;;;;;7.53;6.20;;;8.60;99.90;;;;;;5025490;28;20438;-61
2022/12/23 02:32:36;;;;;;;8.05;5.93;;;8.60;99.90;;;;;;5034530;28;20829;-61
2022/12/23 02:35:11;;;;;;;7.05;6.10;;;8.60;99.90;;;;;;5034567;28;20421;-61
2022/12/23 02:37:45;;;;;;;7.97;6.10;;;8.60;99.90;;;;;;5034397;28;20456;-62
2022/12/23 02:40:22;;;;;;;7.97;6.13;;;8.70;99.90;;;;;;5034056;28;20427;-62
2022/12/23 02:42:58;;;;;;;6.10;5.50;;;8.70;99.90;;;;;;5033306;28;20791;-62
2022/12/23 02:45:34;;;;;;;8.75;6.40;;;8.70;99.90;;;;;;5033358;28;20419;-62
2022/12/23 02:48:06;;;;;;;7.45;6.35;;;8.70;99.90;;;;;;5033499;28;20455;-62
2022/12/23 02:50:36;;;;;;;8.25;6.55;;;8.70;99.90;;;;;;5032534;28;20459;-61
2022/12/23 02:53:08;;;;;;;7.70;6.65;;;8.80;99.90;;;;;;5033543;28;20422;-61
2022/12/23 02:55:38;;;;;;;9.30;6.72;;;8.80;99.90;;;;;;5033772;28;20411;-61
2022/12/23 02:58:09;;;;;;;9.07;6.30;;;8.80;99.90;;;;;;5032904;28;20884;-62
2022/12/23 03:00:38;;;;;;;8.05;6.30;;;8.80;99.90;;;;;;5033089;28;20459;-62
2022/12/23 03:03:06;;;;;;;9.80;6.60;;;8.90;99.90;;;;;;5032653;28;20896;-62
2022/12/23 03:05:37;;;;;;;8.90;6.90;;;8.90;99.90;;;;;;5033004;28;20419;-63
2022/12/23 03:08:11;;;;;;;9.80;6.65;;;8.90;99.90;;;;;;5032926;28;20431;-61
2022/12/23 03:10:51;;;;;;;10.23;7.40;;;8.90;99.90;;;;;;5033012;28;20426;-62
2022/12/23 03:13:28;;;;;;;10.77;7.80;;;9.00;99.90;;;;;;5034415;28;20463;-61
2022/12/23 03:16:07;;;;;;;10.60;7.20;;;9.00;99.90;;;;;;5032564;28;20795;-61
2022/12/23 03:18:46;;;;;;;10.90;7.20;;;9.00;99.90;;;;;;5033250;28;20446;-61
2022/12/23 03:21:22;;;;;;;11.23;7.80;;;9.00;99.90;;;;;;5033594;28;20505;-61
2022/12/23 03:23:54;;;;;;;11.13;8.10;;;9.00;99.90;;;;;;5033345;28;20459;-61
2022/12/23 03:26:27;;;;;;;11.90;8.05;;;9.00;99.90;;;;;;5033407;28;20472;-62
2022/12/23 03:28:58;;;;;;;10.13;7.80;;;9.00;99.90;;;;;;5033368;28;20414;-61
2022/12/23 03:31:28;;;;;;;10.73;7.80;;;9.00;99.90;;;;;;5034354;28;20415;-61
2022/12/23 03:34:02;;;;;;;9.38;7.35;;;9.00;99.90;;;;;;5038726;28;20419;-61
2022/12/23 03:36:32;;;;;;;10.60;7.70;;;9.10;99.90;;;;;;5044695;28;20462;-61
2022/12/23 03:39:03;;;;;;;11.32;7.10;;;9.10;99.90;;;;;;5044908;28;20414;-61
2022/12/23 03:41:34;;;;;;;11.13;7.10;;;9.10;99.90;;;;;;5039958;28;20422;-63
2022/12/23 03:44:06;;;;;;;10.32;7.22;;;9.10;99.90;;;;;;5039658;28;20418;-60
2022/12/23 03:46:39;;;;;;;10.13;6.97;;;9.10;99.90;;;;;;5037525;28;20431;-62
2022/12/23 03:49:11;;;;;;;9.10;6.53;;;9.10;99.90;;;;;;5040966;28;20426;-60
2022/12/23 03:51:45;;;;;;;11.23;7.07;;;9.10;99.90;;;;;;5034817;28;20425;-60
2022/12/23 03:54:17;;;;;;;9.80;7.18;;;9.10;99.90;;;;;;5037650;28;20418;-62
2022/12/23 03:56:49;;;;;;;10.98;7.10;;;9.10;99.90;;;;;;5037851;28;20442;-61
2022/12/23 03:59:21;;;;;;;10.53;6.90;;;9.10;99.90;;;;;;5037933;28;20418;-62
2022/12/23 04:01:58;;;;;;;11.45;7.15;;;9.10;99.90;;;;;;5036830;28;20430;-61
2022/12/23 04:04:31;;;;;;;13.43;7.30;;;9.10;99.90;;;;;;5035501;28;20905;-61
2022/12/23 04:07:04;;;;;;;13.52;7.50;;;9.10;99.90;;;;;;5034138;28;20455;-62
2022/12/23 04:10:52;;;;;;;10.43;6.65;;;9.10;99.90;;;;;;5092250;28;20350;-60
2022/12/23 04:13:19;;;;;;;13.70;8.18;;;9.10;99.90;;;;;;5089970;28;20891;-61
2022/12/23 04:15:46;;;;;;;12.32;7.93;;;9.10;99.90;;;;;;5090361;28;20418;-61
2022/12/23 04:18:12;;;;;;;11.68;7.57;;;9.00;99.90;;;;;;5090296;28;20419;-62
2022/12/23 04:20:39;;;;;;;13.47;8.57;;;9.10;99.90;;;;;;5089906;28;20421;-63
2022/12/23 04:23:06;;;;;;;14.65;9.00;;;9.00;99.90;;;;;;5091065;28;20418;-62
2022/12/23 04:25:33;;;;;;;12.35;7.78;;;9.00;99.90;;;;;;5089568;28;20790;-61
2022/12/23 04:28:01;;;;;;;12.35;7.70;;;9.00;99.90;;;;;;5089417;28;20418;-62
2022/12/23 04:30:27;;;;;;;13.10;7.87;;;8.90;99.90;;;;;;5089487;28;20430;-61
2022/12/23 04:32:54;;;;;;;12.82;8.00;;;8.90;99.90;;;;;;5089661;28;20407;-62
2022/12/23 04:35:21;;;;;;;14.55;8.40;;;8.90;99.90;;;;;;5089931;28;20411;-60
2022/12/23 04:37:48;;;;;;;14.00;8.57;;;8.90;99.90;;;;;;5090429;28;20817;-63
2022/12/23 04:40:15;;;;;;;12.60;8.35;;;8.90;99.90;;;;;;5090396;28;20410;-62
2022/12/23 04:42:42;;;;;;;12.95;8.30;;;8.80;99.90;;;;;;5090076;28;20422;-62
2022/12/23 04:45:11;;;;;;;15.00;8.13;;;8.80;99.90;;;;;;5090107;28;20433;-62
2022/12/23 04:47:37;;;;;;;13.73;8.13;;;8.80;99.90;;;;;;5089733;28;20437;-62
2022/12/23 04:50:05;;;;;;;14.07;8.73;;;8.80;99.90;;;;;;5089767;28;20426;-63
2022/12/23 04:52:31;;;;;;;12.82;8.10;;;8.80;99.90;;;;;;5090856;28;20418;-63
2022/12/23 04:54:58;;;;;;;12.55;8.50;;;8.80;99.90;;;;;;5091541;28;20411;-62
2022/12/23 04:57:25;;;;;;;13.57;8.35;;;8.80;99.90;;;;;;5103104;28;20422;-62
2022/12/23 04:59:52;;;;;;;10.93;7.43;;;8.70;99.90;;;;;;5104182;28;20422;-61
2022/12/23 05:02:20;;;;;;;12.95;8.00;;;8.70;99.90;;;;;;5102864;28;20407;-62
2022/12/23 05:04:46;;;;;;;12.15;8.52;;;8.60;99.90;;;;;;5102506;28;20755;-61
2022/12/23 05:07:13;;;;;;;11.00;7.10;;;8.60;99.90;;;;;;5099529;28;20434;-62
2022/12/23 05:09:40;;;;;;;13.10;8.23;;;8.60;99.90;;;;;;5107307;28;20425;-62
2022/12/23 05:12:07;;;;;;;13.85;8.70;;;8.50;99.90;;;;;;5121792;28;20420;-62
2022/12/23 05:14:33;;;;;;;13.23;8.40;;;8.50;99.90;;;;;;5118513;28;20409;-62
2022/12/23 05:17:00;;;;;;;13.90;9.07;;;8.50;99.90;;;;;;5115425;28;20410;-62
2022/12/23 05:19:28;;;;;;;12.80;8.27;;;8.40;99.90;;;;;;5093850;28;20772;-62
2022/12/23 05:21:55;;;;;;;14.68;8.98;;;8.40;99.90;;;;;;5085704;28;20418;-63
2022/12/23 05:24:21;;;;;;;15.07;9.27;;;8.40;99.90;;;;;;5074941;28;20407;-61
2022/12/23 05:26:48;;;;;;;15.88;9.63;;;8.30;99.90;;;;;;5092882;28;20410;-62
2022/12/23 05:29:15;;;;;;;15.82;9.88;;;8.30;99.90;;;;;;5095429;28;20422;-61
2022/12/23 05:31:42;;;;;;;14.85;9.70;;;8.30;99.90;;;;;;5095400;28;20406;-62
2022/12/23 05:34:09;;;;;;;14.35;9.88;;;8.30;99.90;;;;;;5094753;28;20425;-61
2022/12/23 05:36:37;;;;;;;14.02;9.90;;;8.20;99.90;;;;;;5091243;28;20433;-61
2022/12/23 05:39:04;;;;;;;17.70;11.23;;;8.20;99.90;;;;;;5077352;28;20430;-61
2022/12/23 05:41:30;;;;;;;17.88;10.88;;;8.20;99.90;;;;;;5079468;28;20913;-61
2022/12/23 05:43:57;;;;;;;17.13;10.80;;;8.10;99.90;;;;;;5095188;28;20406;-61
2022/12/23 05:46:24;;;;;;;16.95;10.70;;;8.10;99.90;;;;;;5095239;28;20437;-62
2022/12/23 05:48:51;;;;;;;16.65;10.80;;;8.20;99.90;;;;;;5094694;28;20410;-62
2022/12/23 05:51:17;;;;;;;18.05;10.40;;;8.10;99.90;;;;;;5087605;28;20408;-62
2022/12/23 05:53:45;;;;;;;16.45;10.40;;;8.10;99.90;;;;;;5087091;28;20429;-62
2022/12/23 05:56:12;;;;;;;15.50;10.27;;;8.10;99.90;;;;;;5092820;28;20437;-62
2022/12/23 05:58:39;;;;;;;16.83;9.88;;;8.10;99.90;;;;;;5089956;28;20434;-67
2022/12/23 06:01:05;;;;;;;17.13;10.10;;;8.10;99.90;;;;;;5077698;28;20427;-62
2022/12/23 06:03:32;;;;;;;16.40;10.07;;;8.00;99.90;;;;;;5086501;28;20431;-62
2022/12/23 06:05:59;;;;;;;17.25;10.70;;;8.00;99.90;;;;;;5081915;28;20419;-61
2022/12/23 06:08:26;;;;;;;16.40;10.57;;;8.00;99.90;;;;;;5085793;28;20440;-62
2022/12/23 06:10:54;;;;;;;18.85;11.10;;;8.00;99.90;;;;;;5093959;28;20428;-62
2022/12/23 06:13:20;;;;;;;18.48;11.30;;;8.00;99.90;;;;;;5076342;28;20462;-62
2022/12/23 06:15:47;;;;;;;16.33;10.30;;;8.00;99.90;;;;;;5094205;28;20421;-61
2022/12/23 06:18:14;;;;;;;17.67;11.68;;;7.90;99.90;;;;;;5084066;28;20457;-61
2022/12/23 06:20:40;;;;;;;18.38;11.70;;;7.90;99.90;;;;;;5073516;28;20431;-62
2022/12/23 06:23:07;;;;;;;21.98;13.05;;;7.90;99.90;;;;;;5075351;28;20431;-62
2022/12/23 06:25:34;;;;;;;20.85;12.32;;;7.80;99.90;;;;;;5082828;28;20444;-62
2022/12/23 06:28:02;;;;;;;21.52;12.40;;;7.80;99.90;;;;;;5083231;28;20808;-62
2022/12/23 06:30:29;;;;;;;23.40;13.35;;;7.80;99.90;;;;;;5086235;28;20423;-62
2022/12/23 06:32:55;;;;;;;25.13;13.48;;;7.80;99.90;;;;;;5072193;28;20439;-60
2022/12/23 06:35:22;;;;;;;21.07;12.67;;;7.80;99.90;;;;;;5073397;28;20427;-62
2022/12/23 06:37:49;;;;;;;18.52;12.00;;;7.80;99.90;;;;;;5081156;28;20426;-62
2022/12/23 06:40:16;;;;;;;20.67;13.23;;;7.80;99.90;;;;;;5092715;28;20417;-62
2022/12/23 06:42:42;;;;;;;21.58;13.07;;;7.70;99.90;;;;;;5092513;28;20429;-65
2022/12/23 06:45:12;;;;;;;20.37;12.33;;;7.70;99.90;;;;;;5090301;28;20433;-62
2022/12/23 06:47:38;;;;;;;21.80;13.47;;;7.70;99.90;;;;;;5079036;28;20516;-62
2022/12/23 06:50:06;;;;;;;21.88;13.48;;;7.70;99.90;;;;;;5090908;28;20426;-61
2022/12/23 06:52:33;;;;;;;19.58;12.35;;;7.70;99.90;;;;;;5072791;28;20949;-61
2022/12/23 06:54:59;;;;;;;22.20;13.40;;;7.70;99.90;;;;;;5073558;28;20434;-61
2022/12/23 06:57:26;;;;;;;19.20;12.40;;;7.70;99.90;;;;;;5075544;28;20427;-61
2022/12/23 06:59:53;;;;;;;22.13;13.10;;;7.70;99.90;;;;;;5076674;28;20886;-62
2022/12/23 07:02:21;;;;;;;22.67;14.20;;;7.70;99.90;;;;;;5075810;28;20438;-61
2022/12/23 07:04:48;;;;;;;27.13;14.20;;;7.60;99.90;;;;;;5085283;28;20431;-62
2022/12/23 07:07:14;;;;;;;24.02;14.10;;;7.70;99.90;;;;;;5072908;28;20435;-62
2022/12/23 07:09:41;;;;;;;20.97;13.00;;;7.70;99.90;;;;;;5085658;28;20511;-62
2022/12/23 07:12:08;;;;;;;22.95;13.10;;;7.70;99.90;;;;;;5090496;28;20431;-62
2022/12/23 07:14:34;;;;;;;21.38;12.80;;;7.70;99.90;;;;;;5079788;28;20429;-62
2022/12/23 07:17:01;;;;;;;20.40;13.32;;;7.70;99.90;;;;;;5083305;28;20838;-63
2022/12/23 07:19:29;;;;;;;21.33;13.20;;;7.70;99.90;;;;;;5080415;28;20437;-61
2022/12/23 07:21:56;;;;;;;21.90;13.30;;;7.70;99.90;;;;;;5076206;28;20419;-60
2022/12/23 07:24:23;;;;;;;20.65;13.15;;;7.70;99.90;;;;;;5075936;28;20418;-62
2022/12/23 07:26:50;;;;;;;19.00;12.20;;;7.60;99.90;;;;;;5092650;28;20878;-60
2022/12/23 07:29:17;;;;;;;20.95;12.68;;;7.70;99.90;;;;;;5093439;28;20414;-62
2022/12/23 07:31:43;;;;;;;21.10;12.50;;;7.60;99.90;;;;;;5095312;28;20429;-61
2022/12/23 07:34:10;;;;;;;21.45;12.52;;;7.70;99.90;;;;;;5094242;28;20425;-62
2022/12/23 07:36:38;;;;;;;20.70;12.60;;;7.70;99.90;;;;;;5079827;28;20447;-62
2022/12/23 07:39:05;;;;;;;19.05;12.27;;;7.70;99.90;;;;;;5092186;28;20410;-60
2022/12/23 07:41:32;;;;;;;19.58;12.57;;;7.70;99.90;;;;;;5078768;28;20407;-65
2022/12/23 07:43:59;;;;;;;18.98;12.45;;;7.70;99.90;;;;;;5095200;28;20426;-62
2022/12/23 07:46:25;;;;;;;18.65;11.60;;;7.60;99.90;;;;;;5086034;28;20427;-63
2022/12/23 07:48:52;;;;;;;16.73;10.85;;;7.60;99.90;;;;;;5075473;28;20411;-61
2022/12/23 07:51:19;;;;;;;18.48;11.80;;;7.70;99.90;;;;;;5083268;28;20798;-62
2022/12/23 07:53:50;;;;;;;19.90;12.30;;;7.60;99.90;;;;;;5081777;28;20423;-61
2022/12/23 07:56:16;;;;;;;18.45;11.57;;;7.60;99.90;;;;;;5074559;28;20454;-61
2022/12/23 07:58:43;;;;;;;18.70;11.68;;;7.60;99.90;;;;;;5073459;28;20427;-62
2022/12/23 08:01:10;;;;;;;22.65;12.50;;;7.60;99.90;;;;;;5073950;28;20883;-62
2022/12/23 08:03:37;;;;;;;24.45;13.20;;;7.60;99.90;;;;;;5073707;28;20439;-62
2022/12/23 08:06:05;;;;;;;20.80;11.95;;;7.70;99.90;;;;;;5077432;28;20507;-62
2022/12/23 08:08:33;;;;;;;19.70;11.85;;;7.70;99.90;;;;;;5087399;28;20428;-62
2022/12/23 08:11:03;;;;;;;21.33;12.85;;;7.70;99.90;;;;;;5090152;28;20425;-66
2022/12/23 08:13:34;;;;;;;21.37;11.23;;;7.70;99.90;;;;;;5072974;28;20930;-62
2022/12/23 08:16:02;;;;;;;21.85;12.50;;;7.60;99.90;;;;;;5080222;28;20496;-60
2022/12/23 08:18:30;;;;;;;21.83;12.75;;;7.60;99.90;;;;;;5093855;28;20470;-62
2022/12/23 08:20:59;;;;;;;22.73;12.60;;;7.60;99.90;;;;;;5091570;28;20430;-62
2022/12/23 08:23:27;;;;;;;24.38;13.63;;;7.60;99.90;;;;;;5080823;28;20938;-61
2022/12/23 08:26:03;;;;;;;24.23;13.20;;;7.60;99.90;;;;;;5076917;28;20911;-61
2022/12/23 08:28:31;;;;;;;28.50;14.45;;;7.70;99.90;;;;;;5072610;28;20412;-60
2022/12/23 08:31:04;;;;;;;26.90;13.55;;;7.70;99.90;;;;;;5078716;28;20427;-61
2022/12/23 08:33:31;;;;;;;28.88;14.38;;;7.70;99.90;;;;;;5091589;28;20419;-62
2022/12/23 08:35:58;;;;;;;28.50;14.60;;;7.70;99.90;;;;;;5086717;28;20412;-61
2022/12/23 08:38:25;;;;;;;26.77;14.63;;;7.70;99.90;;;;;;5074887;28;20426;-60
2022/12/23 08:40:51;;;;;;;28.85;14.55;;;7.70;99.90;;;;;;5078585;28;20431;-60
2022/12/23 08:43:19;;;;;;;28.55;14.50;;;7.70;99.90;;;;;;5087920;28;20802;-62
2022/12/23 08:45:46;;;;;;;28.73;15.20;;;7.70;99.90;;;;;;5077308;28;20435;-61
2022/12/23 08:48:13;;;;;;;32.08;15.48;;;7.70;99.90;;;;;;5090488;28;20426;-61
2022/12/23 08:50:41;;;;;;;28.35;15.13;;;7.70;99.90;;;;;;5086080;28;20432;-61
2022/12/23 08:53:07;;;;;;;31.38;15.60;;;7.70;99.90;;;;;;5071794;28;20417;-61
2022/12/23 08:55:38;;;;;;;32.28;15.55;;;7.70;99.90;;;;;;5078944;28;20430;-61
2022/12/23 08:58:04;;;;;;;29.50;14.85;;;7.80;99.90;;;;;;5085163;28;20888;-60
2022/12/23 09:00:33;;;;;;;34.38;16.65;;;7.70;99.90;;;;;;5092076;28;20495;-60
2022/12/23 09:02:59;;;;;;;31.98;15.25;;;7.80;99.90;;;;;;5097017;28;20414;-61
2022/12/23 09:05:26;;;;;;;37.10;16.80;;;7.80;99.90;;;;;;5097732;28;20440;-60
2022/12/23 09:07:53;;;;;;;33.40;16.10;;;7.80;99.90;;;;;;5097272;28;20585;-61
2022/12/23 09:10:20;;;;;;;37.47;15.52;;;7.80;99.90;;;;;;5095712;28;20429;-61
2022/12/23 09:12:47;;;;;;;36.60;16.58;;;7.80;99.90;;;;;;5095667;28;20406;-60
2022/12/23 09:15:13;;;;;;;32.85;15.70;;;7.80;99.90;;;;;;5095386;28;20417;-61
2022/12/23 09:17:42;;;;;;;35.22;16.70;;;7.90;99.90;;;;;;5094987;28;20413;-62
2022/12/23 09:20:10;;;;;;;32.45;15.60;;;7.90;99.90;;;;;;5096295;28;20409;-61
2022/12/23 09:22:36;;;;;;;29.50;15.18;;;7.90;99.90;;;;;;5097217;28;20416;-61
2022/12/23 09:25:04;;;;;;;29.38;14.52;;;7.90;99.90;;;;;;5096260;28;20428;-60
2022/12/23 09:27:30;;;;;;;32.95;16.52;;;7.90;99.90;;;;;;5095240;28;20417;-61
2022/12/23 09:29:57;;;;;;;34.40;16.52;;;7.90;99.90;;;;;;5094998;28;20417;-61
2022/12/23 09:32:24;;;;;;;34.25;15.95;;;7.90;99.90;;;;;;5102233;28;20418;-61
2022/12/23 09:34:52;;;;;;;29.00;14.48;;;8.00;99.90;;;;;;5102013;28;20406;-61
2022/12/23 09:37:19;;;;;;;29.65;15.98;;;8.00;99.90;;;;;;5101179;28;20406;-62
2022/12/23 09:39:45;;;;;;;30.08;15.18;;;8.00;99.90;;;;;;5097421;28;20414;-61
2022/12/23 09:42:28;;;;;;;31.42;15.90;;;8.00;99.90;;;;;;5094831;28;20406;-62
2022/12/23 09:45:08;;;;;;;30.00;15.30;;;7.90;99.90;;;;;;5095922;28;20425;-61
2022/12/23 09:47:36;;;;;;;33.10;15.98;;;7.90;99.90;;;;;;5095863;28;20451;-60
2022/12/23 09:50:14;;;;;;;29.60;14.23;;;7.90;99.90;;;;;;5095895;28;20416;-61
2022/12/23 09:52:49;;;;;;;26.45;14.55;;;7.90;99.90;;;;;;5096088;28;20433;-61
2022/12/23 09:55:17;;;;;;;26.80;13.77;;;7.90;99.90;;;;;;5096476;28;20444;-61
2022/12/23 09:57:57;;;;;;;28.95;13.85;;;7.90;99.90;;;;;;5096344;28;20507;-62
2022/12/23 10:00:24;;;;;;;21.10;12.50;;;8.00;99.90;;;;;;5094565;28;20957;-62
2022/12/23 10:03:04;;;;;;;25.98;12.63;;;8.00;99.90;;;;;;5094713;28;20414;-61
2022/12/23 10:05:46;;;;;;;22.63;12.18;;;8.00;99.90;;;;;;5094871;28;20424;-62
2022/12/23 10:08:17;;;;;;;24.10;13.45;;;8.00;99.90;;;;;;5094411;28;20414;-62
2022/12/23 10:10:47;;;;;;;24.23;12.90;;;8.10;99.90;;;;;;5094830;28;20466;-62
2022/12/23 10:13:24;;;;;;;24.63;13.43;;;8.10;99.90;;;;;;5094300;28;20410;-60
2022/12/23 10:15:53;;;;;;;22.67;12.85;;;8.10;99.90;;;;;;5094729;28;20410;-61
2022/12/23 10:18:25;;;;;;;24.03;13.20;;;8.10;99.90;;;;;;5095039;28;20920;-62
2022/12/23 10:21:01;;;;;;;22.40;12.85;;;8.10;99.90;;;;;;5099117;28;20441;-61
2022/12/23 10:23:32;;;;;;;23.92;13.20;;;8.10;99.90;;;;;;5101297;28;20438;-61
2022/12/23 10:26:03;;;;;;;23.80;13.02;;;8.10;99.90;;;;;;5100293;28;20421;-61
2022/12/23 10:28:30;;;;;;;27.30;14.10;;;8.10;99.90;;;;;;5099810;28;20450;-61
2022/12/23 10:31:03;;;;;;;26.08;15.02;;;8.10;99.90;;;;;;5099592;28;20425;-61
2022/12/23 10:33:38;;;;;;;26.98;14.32;;;8.00;99.90;;;;;;5101220;28;20420;-62
2022/12/23 10:36:12;;;;;;;29.48;15.57;;;8.10;99.90;;;;;;5096319;28;20754;-61
2022/12/23 10:38:51;;;;;;;33.45;15.75;;;8.10;99.90;;;;;;5095388;28;20414;-62
2022/12/23 10:41:28;;;;;;;24.75;13.85;;;8.20;99.90;;;;;;5095532;28;20438;-61
2022/12/23 10:44:18;;;;;;;24.50;13.98;;;8.20;99.90;;;;;;5094438;28;20409;-62
2022/12/23 10:46:53;;;;;;;29.27;14.88;;;8.10;99.90;;;;;;5093954;28;20418;-60
2022/12/23 10:49:30;;;;;;;26.85;14.13;;;8.10;99.90;;;;;;5094233;28;20414;-62
2022/12/23 10:52:01;;;;;;;22.02;13.32;;;8.10;99.90;;;;;;5093778;28;20452;-62
2022/12/23 10:54:32;;;;;;;24.60;13.70;;;8.20;99.90;;;;;;5094122;28;20521;-62
2022/12/23 10:57:00;;;;;;;29.73;14.38;;;8.20;99.90;;;;;;5094596;28;20431;-60
2022/12/23 10:59:28;;;;;;;29.05;15.70;;;8.20;99.90;;;;;;5094513;28;20746;-61
2022/12/23 11:02:02;;;;;;;23.13;13.32;;;8.30;99.90;;;;;;5094342;28;20420;-60
2022/12/23 11:04:34;;;;;;;23.23;13.13;;;8.30;99.90;;;;;;5094265;28;20422;-62
2022/12/23 11:07:03;;;;;;;21.52;12.85;;;8.30;99.90;;;;;;5094463;28;20762;-61
2022/12/23 11:09:37;;;;;;;25.05;13.63;;;8.30;99.90;;;;;;5094017;28;20457;-60
2022/12/23 11:12:06;;;;;;;23.55;13.18;;;8.30;99.90;;;;;;5094780;28;20440;-62
2022/12/23 11:14:36;;;;;;;19.65;12.65;;;8.30;99.90;;;;;;5093830;28;20925;-61
2022/12/23 11:17:05;;;;;;;22.17;13.87;;;8.30;99.90;;;;;;5094880;28;20462;-62
2022/12/23 11:19:31;;;;;;;27.35;15.45;;;8.30;99.90;;;;;;5094064;28;20424;-62
2022/12/23 11:22:00;;;;;;;25.23;14.65;;;8.30;99.90;;;;;;5093839;28;20402;-62
2022/12/23 11:24:31;;;;;;;22.77;14.65;;;8.30;99.90;;;;;;5094055;28;20421;-61
2022/12/23 11:27:04;;;;;;;25.52;13.93;;;8.30;99.90;;;;;;5093120;28;20548;-60
2022/12/23 11:29:35;;;;;;;22.08;13.38;;;8.30;99.90;;;;;;5092949;28;20417;-61
2022/12/23 11:32:04;;;;;;;25.85;14.40;;;8.20;99.90;;;;;;5092875;28;20794;-61
2022/12/23 11:34:36;;;;;;;20.85;13.13;;;8.30;99.90;;;;;;5092738;28;20437;-62
2022/12/23 11:37:03;;;;;;;22.57;13.27;;;8.30;99.90;;;;;;5092783;28;20486;-62
2022/12/23 11:39:34;;;;;;;21.25;13.13;;;8.30;99.90;;;;;;5093053;28;20417;-63
2022/12/23 11:42:11;;;;;;;21.50;13.48;;;8.30;99.90;;;;;;5093437;28;20422;-62
2022/12/23 11:44:40;;;;;;;20.33;13.10;;;8.40;99.90;;;;;;5092523;28;20458;-62
2022/12/23 11:47:23;;;;;;;21.90;12.70;;;8.40;99.90;;;;;;5092988;28;20421;-62
2022/12/23 11:49:53;;;;;;;20.42;13.32;;;8.40;99.90;;;;;;5093304;28;20446;-61
2022/12/23 11:52:21;;;;;;;21.17;12.90;;;8.50;99.90;;;;;;5093380;28;22165;-60
2022/12/23 11:54:54;;;;;;;20.67;12.43;;;8.50;99.90;;;;;;5093222;28;20424;-61
2022/12/23 11:57:24;;;;;;;17.05;11.48;;;8.60;99.90;;;;;;5093135;28;20450;-61
2022/12/23 11:59:57;;;;;;;17.85;11.90;;;8.60;99.90;;;;;;5092970;28;20786;-61
2022/12/23 12:02:34;;;;;;;20.13;12.50;;;8.60;99.90;;;;;;5092912;28;20482;-60
2022/12/23 12:05:03;;;;;;;20.08;12.32;;;8.60;99.90;;;;;;5092658;28;20440;-61
2022/12/23 12:07:30;;;;;;;19.63;12.77;;;8.60;99.90;;;;;;5093884;28;20968;-61
2022/12/23 12:10:01;;;;;;;20.88;12.60;;;8.70;99.90;;;;;;5093449;28;20413;-61
2022/12/23 12:12:28;;;;;;;19.50;12.40;;;8.70;99.90;;;;;;5093114;28;20422;-61
2022/12/23 12:14:57;;;;;;;19.60;11.75;;;8.60;99.90;;;;;;5092728;28;20436;-60
2022/12/23 12:17:29;;;;;;;21.50;13.95;;;8.70;99.90;;;;;;5092289;28;20405;-61
2022/12/23 12:20:04;;;;;;;22.45;13.05;;;8.60;99.90;;;;;;5092399;28;20425;-62
2022/12/23 12:22:38;;;;;;;21.48;13.18;;;8.70;99.90;;;;;;5092705;28;20459;-62
2022/12/23 12:25:15;;;;;;;23.70;15.38;;;8.70;99.90;;;;;;5092230;28;20417;-60
2022/12/23 12:27:47;;;;;;;21.92;13.35;;;8.70;99.90;;;;;;5093130;28;20422;-62
2022/12/23 12:30:18;;;;;;;22.75;14.30;;;8.80;99.90;;;;;;5092483;28;20861;-62
2022/12/23 12:32:56;;;;;;;20.10;13.23;;;8.80;99.90;;;;;;5096321;28;20778;-62
2022/12/23 12:35:30;;;;;;;20.42;13.45;;;8.90;99.90;;;;;;5096951;28;20413;-60
2022/12/23 12:38:02;;;;;;;19.73;13.10;;;8.90;99.90;;;;;;5097123;28;20417;-61
2022/12/23 12:40:38;;;;;;;20.08;13.63;;;9.00;99.90;;;;;;5096935;28;20425;-61
2022/12/23 12:43:16;;;;;;;21.38;13.55;;;9.00;99.90;;;;;;5096480;28;20840;-61
2022/12/23 12:45:51;;;;;;;21.00;13.90;;;9.10;99.90;;;;;;5098827;28;20425;-61
2022/12/23 12:48:30;;;;;;;20.48;14.00;;;9.10;99.90;;;;;;5103670;28;20414;-61
2022/12/23 12:51:02;;;;;;;24.50;15.82;;;9.10;99.90;;;;;;5104920;28;20907;-60
2022/12/23 12:53:32;;;;;;;25.02;16.40;;;9.10;99.90;;;;;;5106554;28;20480;-61
2022/12/23 12:56:07;;;;;;;24.10;15.57;;;9.20;99.90;;;;;;5109680;28;20821;-62
2022/12/23 12:58:33;;;;;;;23.08;15.13;;;9.10;99.90;;;;;;5107626;28;20909;-62
2022/12/23 13:01:17;;;;;;;24.20;14.75;;;9.20;99.90;;;;;;5106441;28;20402;-62
2022/12/23 13:04:14;;;;;;;22.90;14.77;;;9.10;99.90;;;;;;5110353;28;20445;-60
2022/12/23 13:06:48;;;;;;;24.00;14.57;;;9.10;99.90;;;;;;5098752;28;20418;-62
2022/12/23 13:09:25;;;;;;;23.33;15.60;;;9.00;99.90;;;;;;5097272;28;20428;-62
2022/12/23 13:11:59;;;;;;;23.30;15.40;;;9.00;99.90;;;;;;5096739;28;20426;-61
2022/12/23 13:14:33;;;;;;;22.15;14.32;;;9.00;99.90;;;;;;5102254;28;20992;-62
2022/12/23 13:17:08;;;;;;;24.03;14.87;;;9.00;99.90;;;;;;5104728;28;20746;-61
2022/12/23 13:19:42;;;;;;;23.10;14.77;;;9.00;99.90;;;;;;5103392;28;20448;-60
2022/12/23 13:22:13;;;;;;;26.45;15.50;;;8.90;99.90;;;;;;5104151;28;20406;-61